sensor_id;sensor_type;location;lat;lon;timestamp;P1;durP1;ratioP1;P2;durP2;ratioP2
20044;SDS011;10183;47.808;9.476;2023-08-12T00:00:37;7.70;;;7.40;;
20044;SDS011;10183;47.808;9.476;2023-08-12T00:03:04;8.18;;;7.78;;
20044;SDS011;10183;47.808;9.476;2023-08-12T00:05:30;8.10;;;7.70;;
20044;SDS011;10183;47.808;9.476;2023-08-12T00:07:56;7.80;;;7.50;;
20044;SDS011;10183;47.808;9.476;2023-08-12T00:10:22;8.30;;;7.90;;
20044;SDS011;10183;47.808;9.476;2023-08-12T00:12:48;7.88;;;7.57;;
20044;SDS011;10183;47.808;9.476;2023-08-12T00:15:14;8.70;;;8.30;;
20044;SDS011;10183;47.808;9.476;2023-08-12T00:17:41;8.68;;;8.27;;
20044;SDS011;10183;47.808;9.476;2023-08-12T00:20:07;9.05;;;8.65;;
20044;SDS011;10183;47.808;9.476;2023-08-12T00:22:36;9.68;;;9.18;;
20044;SDS011;10183;47.808;9.476;2023-08-12T00:25:04;10.02;;;9.52;;
20044;SDS011;10183;47.808;9.476;2023-08-12T00:27:31;9.90;;;9.40;;
20044;SDS011;10183;47.808;9.476;2023-08-12T00:29:57;10.32;;;9.82;;
20044;SDS011;10183;47.808;9.476;2023-08-12T00:32:24;9.52;;;9.13;;
20044;SDS011;10183;47.808;9.476;2023-08-12T00:34:50;9.40;;;9.00;;
20044;SDS011;10183;47.808;9.476;2023-08-12T00:37:16;9.80;;;9.30;;
20044;SDS011;10183;47.808;9.476;2023-08-12T00:39:42;8.88;;;8.48;;
20044;SDS011;10183;47.808;9.476;2023-08-12T00:42:08;9.20;;;8.80;;
20044;SDS011;10183;47.808;9.476;2023-08-12T00:44:34;8.70;;;8.30;;
20044;SDS011;10183;47.808;9.476;2023-08-12T00:47:01;8.60;;;8.20;;
20044;SDS011;10183;47.808;9.476;2023-08-12T00:49:27;8.48;;;8.07;;
20044;SDS011;10183;47.808;9.476;2023-08-12T00:51:53;8.70;;;8.30;;
20044;SDS011;10183;47.808;9.476;2023-08-12T00:54:30;8.20;;;7.80;;
20044;SDS011;10183;47.808;9.476;2023-08-12T00:56:57;8.35;;;7.95;;
20044;SDS011;10183;47.808;9.476;2023-08-12T00:59:23;7.80;;;7.50;;
20044;SDS011;10183;47.808;9.476;2023-08-12T01:01:51;7.80;;;7.50;;
20044;SDS011;10183;47.808;9.476;2023-08-12T01:04:17;8.10;;;7.70;;
20044;SDS011;10183;47.808;9.476;2023-08-12T01:06:43;7.40;;;7.10;;
20044;SDS011;10183;47.808;9.476;2023-08-12T01:09:10;7.60;;;7.30;;
20044;SDS011;10183;47.808;9.476;2023-08-12T01:14:18;8.10;;;7.70;;
20044;SDS011;10183;47.808;9.476;2023-08-12T01:16:53;7.47;;;7.18;;
20044;SDS011;10183;47.808;9.476;2023-08-12T01:19:35;7.30;;;7.00;;
20044;SDS011;10183;47.808;9.476;2023-08-12T01:22:03;6.90;;;6.60;;
20044;SDS011;10183;47.808;9.476;2023-08-12T01:24:33;6.70;;;6.40;;
20044;SDS011;10183;47.808;9.476;2023-08-12T01:27:05;6.63;;;6.32;;
20044;SDS011;10183;47.808;9.476;2023-08-12T01:29:32;6.60;;;6.30;;
20044;SDS011;10183;47.808;9.476;2023-08-12T01:32:07;6.90;;;6.60;;
20044;SDS011;10183;47.808;9.476;2023-08-12T01:34:43;7.60;;;7.30;;
20044;SDS011;10183;47.808;9.476;2023-08-12T01:37:11;8.15;;;7.75;;
20044;SDS011;10183;47.808;9.476;2023-08-12T01:39:39;7.80;;;7.50;;
20044;SDS011;10183;47.808;9.476;2023-08-12T01:42:06;8.40;;;8.00;;
20044;SDS011;10183;47.808;9.476;2023-08-12T01:44:33;8.40;;;8.00;;
20044;SDS011;10183;47.808;9.476;2023-08-12T01:46:59;8.30;;;7.90;;
20044;SDS011;10183;47.808;9.476;2023-08-12T01:49:26;8.10;;;7.70;;
20044;SDS011;10183;47.808;9.476;2023-08-12T01:51:53;8.45;;;8.05;;
20044;SDS011;10183;47.808;9.476;2023-08-12T01:54:19;8.70;;;8.30;;
20044;SDS011;10183;47.808;9.476;2023-08-12T01:56:45;8.32;;;7.93;;
20044;SDS011;10183;47.808;9.476;2023-08-12T01:59:11;8.77;;;8.38;;
20044;SDS011;10183;47.808;9.476;2023-08-12T02:01:38;9.48;;;8.98;;
20044;SDS011;10183;47.808;9.476;2023-08-12T02:04:04;9.70;;;9.20;;
20044;SDS011;10183;47.808;9.476;2023-08-12T02:06:30;9.80;;;9.30;;
20044;SDS011;10183;47.808;9.476;2023-08-12T02:08:56;9.10;;;8.70;;
20044;SDS011;10183;47.808;9.476;2023-08-12T02:11:22;8.60;;;8.20;;
20044;SDS011;10183;47.808;9.476;2023-08-12T02:13:48;7.70;;;7.40;;
20044;SDS011;10183;47.808;9.476;2023-08-12T02:16:14;8.00;;;7.60;;
20044;SDS011;10183;47.808;9.476;2023-08-12T02:18:41;7.50;;;7.20;;
20044;SDS011;10183;47.808;9.476;2023-08-12T02:21:07;7.40;;;7.10;;
20044;SDS011;10183;47.808;9.476;2023-08-12T02:23:33;7.30;;;7.00;;
20044;SDS011;10183;47.808;9.476;2023-08-12T02:25:59;7.28;;;6.97;;
20044;SDS011;10183;47.808;9.476;2023-08-12T02:28:26;6.90;;;6.60;;
20044;SDS011;10183;47.808;9.476;2023-08-12T02:30:52;6.72;;;6.43;;
20044;SDS011;10183;47.808;9.476;2023-08-12T02:33:18;6.80;;;6.50;;
20044;SDS011;10183;47.808;9.476;2023-08-12T02:35:45;6.70;;;6.40;;
20044;SDS011;10183;47.808;9.476;2023-08-12T02:38:11;6.40;;;6.10;;
20044;SDS011;10183;47.808;9.476;2023-08-12T02:40:37;6.40;;;6.10;;
20044;SDS011;10183;47.808;9.476;2023-08-12T02:43:03;6.60;;;6.30;;
20044;SDS011;10183;47.808;9.476;2023-08-12T02:45:29;5.70;;;5.50;;
20044;SDS011;10183;47.808;9.476;2023-08-12T02:47:56;6.75;;;6.45;;
20044;SDS011;10183;47.808;9.476;2023-08-12T02:50:22;6.63;;;6.32;;
20044;SDS011;10183;47.808;9.476;2023-08-12T02:52:48;6.00;;;5.80;;
20044;SDS011;10183;47.808;9.476;2023-08-12T02:55:14;6.10;;;5.90;;
20044;SDS011;10183;47.808;9.476;2023-08-12T02:57:40;6.00;;;5.80;;
20044;SDS011;10183;47.808;9.476;2023-08-12T03:00:07;5.90;;;5.70;;
20044;SDS011;10183;47.808;9.476;2023-08-12T03:02:33;6.10;;;5.90;;
20044;SDS011;10183;47.808;9.476;2023-08-12T03:05:01;6.13;;;5.93;;
20044;SDS011;10183;47.808;9.476;2023-08-12T03:07:28;6.00;;;5.80;;
20044;SDS011;10183;47.808;9.476;2023-08-12T03:09:54;5.90;;;5.70;;
20044;SDS011;10183;47.808;9.476;2023-08-12T03:12:20;5.55;;;5.35;;
20044;SDS011;10183;47.808;9.476;2023-08-12T03:14:47;5.25;;;5.05;;
20044;SDS011;10183;47.808;9.476;2023-08-12T03:17:13;5.63;;;5.43;;
20044;SDS011;10183;47.808;9.476;2023-08-12T03:19:39;5.45;;;5.25;;
20044;SDS011;10183;47.808;9.476;2023-08-12T03:22:05;5.68;;;5.47;;
20044;SDS011;10183;47.808;9.476;2023-08-12T03:24:31;5.85;;;5.65;;
20044;SDS011;10183;47.808;9.476;2023-08-12T03:26:58;5.40;;;5.20;;
20044;SDS011;10183;47.808;9.476;2023-08-12T03:29:24;5.27;;;5.07;;
20044;SDS011;10183;47.808;9.476;2023-08-12T03:31:50;4.90;;;4.70;;
20044;SDS011;10183;47.808;9.476;2023-08-12T03:34:17;5.30;;;5.10;;
20044;SDS011;10183;47.808;9.476;2023-08-12T03:36:43;6.50;;;6.20;;
20044;SDS011;10183;47.808;9.476;2023-08-12T03:39:11;6.70;;;6.40;;
20044;SDS011;10183;47.808;9.476;2023-08-12T03:41:37;6.97;;;6.68;;
20044;SDS011;10183;47.808;9.476;2023-08-12T03:44:04;6.70;;;6.40;;
20044;SDS011;10183;47.808;9.476;2023-08-12T03:46:30;6.90;;;6.60;;
20044;SDS011;10183;47.808;9.476;2023-08-12T03:48:56;6.15;;;5.95;;
20044;SDS011;10183;47.808;9.476;2023-08-12T03:51:23;6.60;;;6.30;;
20044;SDS011;10183;47.808;9.476;2023-08-12T03:53:49;6.38;;;6.07;;
20044;SDS011;10183;47.808;9.476;2023-08-12T03:56:15;6.50;;;6.20;;
20044;SDS011;10183;47.808;9.476;2023-08-12T03:58:42;6.50;;;6.20;;
20044;SDS011;10183;47.808;9.476;2023-08-12T04:01:09;7.20;;;6.90;;
20044;SDS011;10183;47.808;9.476;2023-08-12T04:03:35;6.68;;;6.38;;
20044;SDS011;10183;47.808;9.476;2023-08-12T04:06:01;7.07;;;6.78;;
20044;SDS011;10183;47.808;9.476;2023-08-12T04:08:28;14.90;;;14.20;;
20044;SDS011;10183;47.808;9.476;2023-08-12T04:10:55;15.60;;;14.80;;
20044;SDS011;10183;47.808;9.476;2023-08-12T04:13:21;14.85;;;14.05;;
20044;SDS011;10183;47.808;9.476;2023-08-12T04:15:50;14.85;;;14.02;;
20044;SDS011;10183;47.808;9.476;2023-08-12T04:18:18;13.40;;;12.60;;
20044;SDS011;10183;47.808;9.476;2023-08-12T04:20:45;18.83;;;17.63;;
20044;SDS011;10183;47.808;9.476;2023-08-12T04:23:12;18.83;;;17.63;;
20044;SDS011;10183;47.808;9.476;2023-08-12T04:25:39;19.00;;;17.80;;
20044;SDS011;10183;47.808;9.476;2023-08-12T04:28:05;12.90;;;12.20;;
20044;SDS011;10183;47.808;9.476;2023-08-12T04:30:31;13.50;;;12.70;;
20044;SDS011;10183;47.808;9.476;2023-08-12T04:32:57;14.38;;;13.57;;
20044;SDS011;10183;47.808;9.476;2023-08-12T04:35:23;13.73;;;12.93;;
20044;SDS011;10183;47.808;9.476;2023-08-12T04:37:49;12.95;;;12.25;;
20044;SDS011;10183;47.808;9.476;2023-08-12T04:40:16;13.75;;;13.05;;
20044;SDS011;10183;47.808;9.476;2023-08-12T04:42:42;12.57;;;11.88;;
20044;SDS011;10183;47.808;9.476;2023-08-12T04:45:08;13.02;;;12.32;;
20044;SDS011;10183;47.808;9.476;2023-08-12T04:47:35;12.05;;;11.45;;
20044;SDS011;10183;47.808;9.476;2023-08-12T04:50:02;12.27;;;11.57;;
20044;SDS011;10183;47.808;9.476;2023-08-12T04:52:29;12.00;;;11.40;;
20044;SDS011;10183;47.808;9.476;2023-08-12T04:54:55;10.82;;;10.23;;
20044;SDS011;10183;47.808;9.476;2023-08-12T04:57:21;10.15;;;9.65;;
20044;SDS011;10183;47.808;9.476;2023-08-12T04:59:47;9.25;;;8.75;;
20044;SDS011;10183;47.808;9.476;2023-08-12T05:02:13;8.80;;;8.40;;
20044;SDS011;10183;47.808;9.476;2023-08-12T05:04:39;8.60;;;8.20;;
20044;SDS011;10183;47.808;9.476;2023-08-12T05:07:06;11.30;;;10.70;;
20044;SDS011;10183;47.808;9.476;2023-08-12T05:09:32;9.88;;;9.38;;
20044;SDS011;10183;47.808;9.476;2023-08-12T05:11:58;14.82;;;14.13;;
20044;SDS011;10183;47.808;9.476;2023-08-12T05:14:24;15.60;;;14.80;;
20044;SDS011;10183;47.808;9.476;2023-08-12T05:16:50;15.25;;;14.45;;
20044;SDS011;10183;47.808;9.476;2023-08-12T05:19:16;18.15;;;17.15;;
20044;SDS011;10183;47.808;9.476;2023-08-12T05:21:43;10.27;;;9.77;;
20044;SDS011;10183;47.808;9.476;2023-08-12T05:24:09;12.20;;;11.60;;
20044;SDS011;10183;47.808;9.476;2023-08-12T05:26:36;11.15;;;10.55;;
20044;SDS011;10183;47.808;9.476;2023-08-12T05:29:03;11.57;;;10.98;;
20044;SDS011;10183;47.808;9.476;2023-08-12T05:31:29;11.15;;;10.55;;
20044;SDS011;10183;47.808;9.476;2023-08-12T05:33:55;12.10;;;11.40;;
20044;SDS011;10183;47.808;9.476;2023-08-12T05:36:21;11.77;;;11.07;;
20044;SDS011;10183;47.808;9.476;2023-08-12T05:38:48;13.02;;;12.23;;
20044;SDS011;10183;47.808;9.476;2023-08-12T05:41:14;12.85;;;12.05;;
20044;SDS011;10183;47.808;9.476;2023-08-12T05:43:40;16.17;;;15.23;;
20044;SDS011;10183;47.808;9.476;2023-08-12T05:46:06;22.73;;;21.33;;
20044;SDS011;10183;47.808;9.476;2023-08-12T05:48:32;14.48;;;13.68;;
20044;SDS011;10183;47.808;9.476;2023-08-12T05:50:58;14.25;;;13.45;;
20044;SDS011;10183;47.808;9.476;2023-08-12T05:53:25;13.50;;;12.70;;
20044;SDS011;10183;47.808;9.476;2023-08-12T05:55:51;15.13;;;14.23;;
20044;SDS011;10183;47.808;9.476;2023-08-12T05:58:18;15.27;;;14.38;;
20044;SDS011;10183;47.808;9.476;2023-08-12T06:00:44;13.13;;;12.32;;
20044;SDS011;10183;47.808;9.476;2023-08-12T06:03:11;16.33;;;15.43;;
20044;SDS011;10183;47.808;9.476;2023-08-12T06:05:39;13.63;;;12.82;;
20044;SDS011;10183;47.808;9.476;2023-08-12T06:08:06;15.25;;;14.35;;
20044;SDS011;10183;47.808;9.476;2023-08-12T06:10:33;14.00;;;13.20;;
20044;SDS011;10183;47.808;9.476;2023-08-12T06:13:00;14.73;;;13.93;;
20044;SDS011;10183;47.808;9.476;2023-08-12T06:15:26;16.00;;;15.00;;
20044;SDS011;10183;47.808;9.476;2023-08-12T06:17:52;18.48;;;17.38;;
20044;SDS011;10183;47.808;9.476;2023-08-12T06:20:18;19.90;;;18.70;;
20044;SDS011;10183;47.808;9.476;2023-08-12T06:22:45;20.55;;;19.25;;
20044;SDS011;10183;47.808;9.476;2023-08-12T06:25:11;25.05;;;23.35;;
20044;SDS011;10183;47.808;9.476;2023-08-12T06:27:37;25.60;;;23.63;;
20044;SDS011;10183;47.808;9.476;2023-08-12T06:30:04;31.95;;;29.35;;
20044;SDS011;10183;47.808;9.476;2023-08-12T06:32:33;28.40;;;26.27;;
20044;SDS011;10183;47.808;9.476;2023-08-12T06:34:59;20.83;;;19.30;;
20044;SDS011;10183;47.808;9.476;2023-08-12T06:37:25;25.65;;;23.75;;
20044;SDS011;10183;47.808;9.476;2023-08-12T06:39:52;23.45;;;21.70;;
20044;SDS011;10183;47.808;9.476;2023-08-12T06:42:18;18.85;;;17.55;;
20044;SDS011;10183;47.808;9.476;2023-08-12T06:44:45;14.85;;;13.82;;
20044;SDS011;10183;47.808;9.476;2023-08-12T06:47:11;19.23;;;17.98;;
20044;SDS011;10183;47.808;9.476;2023-08-12T06:49:37;28.42;;;26.42;;
20044;SDS011;10183;47.808;9.476;2023-08-12T06:52:03;39.33;;;36.03;;
20044;SDS011;10183;47.808;9.476;2023-08-12T06:54:30;25.25;;;23.55;;
20044;SDS011;10183;47.808;9.476;2023-08-12T06:56:56;26.95;;;25.08;;
20044;SDS011;10183;47.808;9.476;2023-08-12T06:59:23;28.50;;;26.40;;
20044;SDS011;10183;47.808;9.476;2023-08-12T07:01:50;29.35;;;27.10;;
20044;SDS011;10183;47.808;9.476;2023-08-12T07:04:17;38.53;;;35.13;;
20044;SDS011;10183;47.808;9.476;2023-08-12T07:06:44;36.03;;;32.92;;
20044;SDS011;10183;47.808;9.476;2023-08-12T07:09:11;29.27;;;26.88;;
20044;SDS011;10183;47.808;9.476;2023-08-12T07:11:37;31.02;;;28.45;;
20044;SDS011;10183;47.808;9.476;2023-08-12T07:14:04;23.05;;;21.25;;
20044;SDS011;10183;47.808;9.476;2023-08-12T07:16:30;19.77;;;18.25;;
20044;SDS011;10183;47.808;9.476;2023-08-12T07:18:57;22.52;;;20.92;;
20044;SDS011;10183;47.808;9.476;2023-08-12T07:21:23;22.00;;;20.40;;
20044;SDS011;10183;47.808;9.476;2023-08-12T07:23:49;30.35;;;28.05;;
20044;SDS011;10183;47.808;9.476;2023-08-12T07:26:16;31.17;;;28.77;;
20044;SDS011;10183;47.808;9.476;2023-08-12T07:28:42;31.52;;;29.10;;
20044;SDS011;10183;47.808;9.476;2023-08-12T07:31:08;35.70;;;32.75;;
20044;SDS011;10183;47.808;9.476;2023-08-12T07:33:42;37.03;;;33.83;;
20044;SDS011;10183;47.808;9.476;2023-08-12T07:36:08;34.65;;;31.75;;
20044;SDS011;10183;47.808;9.476;2023-08-12T07:38:34;27.60;;;25.40;;
20044;SDS011;10183;47.808;9.476;2023-08-12T07:41:01;27.88;;;25.58;;
20044;SDS011;10183;47.808;9.476;2023-08-12T07:43:28;21.85;;;19.95;;
20044;SDS011;10183;47.808;9.476;2023-08-12T07:45:54;18.45;;;16.95;;
20044;SDS011;10183;47.808;9.476;2023-08-12T07:48:20;21.00;;;19.50;;
20044;SDS011;10183;47.808;9.476;2023-08-12T07:50:47;18.13;;;16.63;;
20044;SDS011;10183;47.808;9.476;2023-08-12T07:53:20;49.25;;;44.67;;
20044;SDS011;10183;47.808;9.476;2023-08-12T07:55:46;29.65;;;26.95;;
20044;SDS011;10183;47.808;9.476;2023-08-12T07:58:12;31.35;;;28.70;;
20044;SDS011;10183;47.808;9.476;2023-08-12T08:00:39;24.63;;;22.73;;
20044;SDS011;10183;47.808;9.476;2023-08-12T08:03:05;26.40;;;24.08;;
20044;SDS011;10183;47.808;9.476;2023-08-12T08:05:31;41.08;;;37.45;;
20044;SDS011;10183;47.808;9.476;2023-08-12T08:07:58;39.33;;;35.85;;
20044;SDS011;10183;47.808;9.476;2023-08-12T08:10:24;33.75;;;30.55;;
20044;SDS011;10183;47.808;9.476;2023-08-12T08:12:50;43.90;;;40.00;;
20044;SDS011;10183;47.808;9.476;2023-08-12T08:15:16;35.22;;;31.88;;
20044;SDS011;10183;47.808;9.476;2023-08-12T08:17:43;37.67;;;34.22;;
20044;SDS011;10183;47.808;9.476;2023-08-12T08:20:09;50.80;;;46.42;;
20044;SDS011;10183;47.808;9.476;2023-08-12T08:22:36;43.45;;;39.38;;
20044;SDS011;10183;47.808;9.476;2023-08-12T08:25:02;38.20;;;34.55;;
20044;SDS011;10183;47.808;9.476;2023-08-12T08:27:29;43.50;;;39.50;;
20044;SDS011;10183;47.808;9.476;2023-08-12T08:29:55;30.10;;;27.50;;
20044;SDS011;10183;47.808;9.476;2023-08-12T08:32:21;27.83;;;25.13;;
20044;SDS011;10183;47.808;9.476;2023-08-12T08:34:47;36.60;;;33.05;;
20044;SDS011;10183;47.808;9.476;2023-08-12T08:37:13;41.47;;;37.78;;
20044;SDS011;10183;47.808;9.476;2023-08-12T08:39:40;35.85;;;32.53;;
20044;SDS011;10183;47.808;9.476;2023-08-12T08:42:06;40.03;;;36.05;;
20044;SDS011;10183;47.808;9.476;2023-08-12T08:44:34;27.25;;;24.55;;
20044;SDS011;10183;47.808;9.476;2023-08-12T08:47:01;25.35;;;22.88;;
20044;SDS011;10183;47.808;9.476;2023-08-12T08:49:28;23.17;;;20.70;;
20044;SDS011;10183;47.808;9.476;2023-08-12T08:51:56;28.63;;;25.98;;
20044;SDS011;10183;47.808;9.476;2023-08-12T08:54:24;42.63;;;38.53;;
20044;SDS011;10183;47.808;9.476;2023-08-12T08:56:50;24.77;;;22.17;;
20044;SDS011;10183;47.808;9.476;2023-08-12T08:59:17;47.85;;;43.30;;
20044;SDS011;10183;47.808;9.476;2023-08-12T09:01:43;27.00;;;23.20;;
20044;SDS011;10183;47.808;9.476;2023-08-12T09:04:14;28.75;;;25.95;;
20044;SDS011;10183;47.808;9.476;2023-08-12T09:06:42;28.05;;;25.45;;
20044;SDS011;10183;47.808;9.476;2023-08-12T09:09:10;22.50;;;20.40;;
20044;SDS011;10183;47.808;9.476;2023-08-12T09:11:39;24.45;;;21.85;;
20044;SDS011;10183;47.808;9.476;2023-08-12T09:14:06;56.28;;;50.83;;
20044;SDS011;10183;47.808;9.476;2023-08-12T09:16:32;35.17;;;31.40;;
20044;SDS011;10183;47.808;9.476;2023-08-12T09:18:59;47.47;;;42.60;;
20044;SDS011;10183;47.808;9.476;2023-08-12T09:21:25;28.55;;;25.45;;
20044;SDS011;10183;47.808;9.476;2023-08-12T09:23:52;41.85;;;38.03;;
20044;SDS011;10183;47.808;9.476;2023-08-12T09:26:19;32.88;;;29.92;;
20044;SDS011;10183;47.808;9.476;2023-08-12T09:28:47;29.67;;;26.58;;
20044;SDS011;10183;47.808;9.476;2023-08-12T09:31:27;36.95;;;33.25;;
20044;SDS011;10183;47.808;9.476;2023-08-12T09:34:03;35.40;;;31.75;;
20044;SDS011;10183;47.808;9.476;2023-08-12T09:36:32;29.75;;;26.65;;
20044;SDS011;10183;47.808;9.476;2023-08-12T09:38:59;36.72;;;32.90;;
20044;SDS011;10183;47.808;9.476;2023-08-12T09:41:28;38.42;;;34.58;;
20044;SDS011;10183;47.808;9.476;2023-08-12T09:43:55;55.08;;;49.55;;
20044;SDS011;10183;47.808;9.476;2023-08-12T09:46:22;23.63;;;21.33;;
20044;SDS011;10183;47.808;9.476;2023-08-12T09:48:51;24.67;;;22.48;;
20044;SDS011;10183;47.808;9.476;2023-08-12T09:51:18;28.35;;;25.58;;
20044;SDS011;10183;47.808;9.476;2023-08-12T09:53:48;43.45;;;38.92;;
20044;SDS011;10183;47.808;9.476;2023-08-12T09:56:17;44.15;;;39.55;;
20044;SDS011;10183;47.808;9.476;2023-08-12T09:58:46;65.85;;;58.95;;
20044;SDS011;10183;47.808;9.476;2023-08-12T10:01:14;51.33;;;46.33;;
20044;SDS011;10183;47.808;9.476;2023-08-12T10:03:44;41.63;;;37.72;;
20044;SDS011;10183;47.808;9.476;2023-08-12T10:06:16;41.83;;;38.00;;
20044;SDS011;10183;47.808;9.476;2023-08-12T10:08:44;69.40;;;61.92;;
20044;SDS011;10183;47.808;9.476;2023-08-12T10:11:13;51.10;;;46.10;;
20044;SDS011;10183;47.808;9.476;2023-08-12T10:13:42;44.22;;;39.85;;
20044;SDS011;10183;47.808;9.476;2023-08-12T10:16:09;72.72;;;59.97;;
20044;SDS011;10183;47.808;9.476;2023-08-12T10:18:36;41.97;;;38.00;;
20044;SDS011;10183;47.808;9.476;2023-08-12T10:21:09;25.60;;;22.95;;
20044;SDS011;10183;47.808;9.476;2023-08-12T10:23:36;57.05;;;50.95;;
20044;SDS011;10183;47.808;9.476;2023-08-12T10:26:02;36.72;;;33.28;;
20044;SDS011;10183;47.808;9.476;2023-08-12T10:28:31;36.05;;;32.70;;
20044;SDS011;10183;47.808;9.476;2023-08-12T10:31:03;50.58;;;45.83;;
20044;SDS011;10183;47.808;9.476;2023-08-12T10:33:34;54.80;;;49.08;;
20044;SDS011;10183;47.808;9.476;2023-08-12T10:36:04;26.05;;;23.67;;
20044;SDS011;10183;47.808;9.476;2023-08-12T10:38:31;64.20;;;57.40;;
20044;SDS011;10183;47.808;9.476;2023-08-12T10:41:20;40.97;;;37.40;;
20044;SDS011;10183;47.808;9.476;2023-08-12T10:43:57;35.90;;;32.60;;
20044;SDS011;10183;47.808;9.476;2023-08-12T10:46:32;33.63;;;30.55;;
20044;SDS011;10183;47.808;9.476;2023-08-12T10:49:09;38.13;;;34.65;;
20044;SDS011;10183;47.808;9.476;2023-08-12T10:51:52;36.00;;;31.17;;
20044;SDS011;10183;47.808;9.476;2023-08-12T10:57:07;37.85;;;34.28;;
20044;SDS011;10183;47.808;9.476;2023-08-12T11:02:26;40.22;;;36.65;;
20044;SDS011;10183;47.808;9.476;2023-08-12T11:05:02;39.85;;;36.17;;
20044;SDS011;10183;47.808;9.476;2023-08-12T11:10:06;28.27;;;25.77;;
20044;SDS011;10183;47.808;9.476;2023-08-12T11:12:40;29.10;;;26.55;;
20044;SDS011;10183;47.808;9.476;2023-08-12T11:15:11;24.00;;;22.00;;
20044;SDS011;10183;47.808;9.476;2023-08-12T11:17:41;23.75;;;21.55;;
20044;SDS011;10183;47.808;9.476;2023-08-12T11:20:11;24.40;;;22.23;;
20044;SDS011;10183;47.808;9.476;2023-08-12T11:22:39;25.27;;;22.83;;
20044;SDS011;10183;47.808;9.476;2023-08-12T11:25:07;24.25;;;22.05;;
20044;SDS011;10183;47.808;9.476;2023-08-12T11:27:38;28.50;;;25.98;;
20044;SDS011;10183;47.808;9.476;2023-08-12T11:30:09;31.17;;;28.17;;
20044;SDS011;10183;47.808;9.476;2023-08-12T11:32:37;27.80;;;25.30;;
20044;SDS011;10183;47.808;9.476;2023-08-12T11:35:05;31.10;;;28.20;;
20044;SDS011;10183;47.808;9.476;2023-08-12T11:37:32;32.17;;;29.48;;
20044;SDS011;10183;47.808;9.476;2023-08-12T11:40:01;30.02;;;27.33;;
20044;SDS011;10183;47.808;9.476;2023-08-12T11:42:28;26.25;;;23.90;;
20044;SDS011;10183;47.808;9.476;2023-08-12T11:44:55;30.45;;;27.75;;
20044;SDS011;10183;47.808;9.476;2023-08-12T11:47:21;26.48;;;24.08;;
20044;SDS011;10183;47.808;9.476;2023-08-12T11:49:47;26.73;;;24.42;;
20044;SDS011;10183;47.808;9.476;2023-08-12T11:52:14;37.00;;;33.90;;
20044;SDS011;10183;47.808;9.476;2023-08-12T11:54:41;36.72;;;33.53;;
20044;SDS011;10183;47.808;9.476;2023-08-12T11:57:07;36.22;;;33.00;;
20044;SDS011;10183;47.808;9.476;2023-08-12T11:59:33;76.57;;;68.70;;
20044;SDS011;10183;47.808;9.476;2023-08-12T12:02:01;56.08;;;50.80;;
20044;SDS011;10183;47.808;9.476;2023-08-12T12:04:30;33.50;;;30.20;;
20044;SDS011;10183;47.808;9.476;2023-08-12T12:06:57;32.72;;;29.80;;
20044;SDS011;10183;47.808;9.476;2023-08-12T12:09:25;31.13;;;28.30;;
20044;SDS011;10183;47.808;9.476;2023-08-12T12:11:52;33.42;;;30.25;;
20044;SDS011;10183;47.808;9.476;2023-08-12T12:14:20;31.58;;;28.55;;
20044;SDS011;10183;47.808;9.476;2023-08-12T12:16:47;36.90;;;33.60;;
20044;SDS011;10183;47.808;9.476;2023-08-12T12:19:21;34.78;;;31.58;;
20044;SDS011;10183;47.808;9.476;2023-08-12T12:21:49;25.63;;;23.13;;
20044;SDS011;10183;47.808;9.476;2023-08-12T12:24:17;37.65;;;34.53;;
20044;SDS011;10183;47.808;9.476;2023-08-12T12:26:44;33.38;;;30.52;;
20044;SDS011;10183;47.808;9.476;2023-08-12T12:29:10;41.58;;;37.67;;
20044;SDS011;10183;47.808;9.476;2023-08-12T12:31:37;31.23;;;28.45;;
20044;SDS011;10183;47.808;9.476;2023-08-12T12:34:04;33.92;;;31.00;;
20044;SDS011;10183;47.808;9.476;2023-08-12T12:36:31;35.88;;;32.78;;
20044;SDS011;10183;47.808;9.476;2023-08-12T12:39:02;31.15;;;28.40;;
20044;SDS011;10183;47.808;9.476;2023-08-12T12:41:29;27.80;;;25.33;;
20044;SDS011;10183;47.808;9.476;2023-08-12T12:43:56;31.65;;;28.95;;
20044;SDS011;10183;47.808;9.476;2023-08-12T12:46:22;34.30;;;31.33;;
20044;SDS011;10183;47.808;9.476;2023-08-12T12:48:49;28.25;;;25.65;;
20044;SDS011;10183;47.808;9.476;2023-08-12T12:51:15;35.05;;;31.77;;
20044;SDS011;10183;47.808;9.476;2023-08-12T12:53:42;37.00;;;33.72;;
20044;SDS011;10183;47.808;9.476;2023-08-12T12:56:08;38.05;;;34.75;;
20044;SDS011;10183;47.808;9.476;2023-08-12T12:58:35;36.90;;;33.60;;
20044;SDS011;10183;47.808;9.476;2023-08-12T13:01:03;31.80;;;28.98;;
20044;SDS011;10183;47.808;9.476;2023-08-12T13:03:30;34.22;;;31.13;;
20044;SDS011;10183;47.808;9.476;2023-08-12T13:05:57;35.53;;;32.33;;
20044;SDS011;10183;47.808;9.476;2023-08-12T13:08:24;30.65;;;28.05;;
20044;SDS011;10183;47.808;9.476;2023-08-12T13:10:50;30.17;;;27.67;;
20044;SDS011;10183;47.808;9.476;2023-08-12T13:13:17;29.95;;;27.35;;
20044;SDS011;10183;47.808;9.476;2023-08-12T13:15:44;29.75;;;27.05;;
20044;SDS011;10183;47.808;9.476;2023-08-12T13:18:11;29.90;;;27.25;;
20044;SDS011;10183;47.808;9.476;2023-08-12T13:20:38;27.83;;;25.40;;
20044;SDS011;10183;47.808;9.476;2023-08-12T13:23:04;33.30;;;30.52;;
20044;SDS011;10183;47.808;9.476;2023-08-12T13:25:31;34.63;;;31.60;;
20044;SDS011;10183;47.808;9.476;2023-08-12T13:28:02;35.65;;;32.45;;
20044;SDS011;10183;47.808;9.476;2023-08-12T13:30:29;38.85;;;35.28;;
20044;SDS011;10183;47.808;9.476;2023-08-12T13:32:55;37.90;;;34.22;;
20044;SDS011;10183;47.808;9.476;2023-08-12T13:35:22;58.67;;;53.38;;
20044;SDS011;10183;47.808;9.476;2023-08-12T13:37:49;48.55;;;44.10;;
20044;SDS011;10183;47.808;9.476;2023-08-12T13:40:17;51.13;;;46.60;;
20044;SDS011;10183;47.808;9.476;2023-08-12T13:42:43;51.30;;;46.63;;
20044;SDS011;10183;47.808;9.476;2023-08-12T13:45:11;42.97;;;39.03;;
20044;SDS011;10183;47.808;9.476;2023-08-12T13:47:38;40.70;;;36.97;;
20044;SDS011;10183;47.808;9.476;2023-08-12T13:50:04;46.33;;;42.03;;
20044;SDS011;10183;47.808;9.476;2023-08-12T13:52:31;47.00;;;42.67;;
20044;SDS011;10183;47.808;9.476;2023-08-12T13:54:57;51.35;;;46.50;;
20044;SDS011;10183;47.808;9.476;2023-08-12T13:57:24;55.05;;;49.92;;
20044;SDS011;10183;47.808;9.476;2023-08-12T13:59:50;57.88;;;52.17;;
20044;SDS011;10183;47.808;9.476;2023-08-12T14:02:16;56.08;;;50.72;;
20044;SDS011;10183;47.808;9.476;2023-08-12T14:04:42;51.80;;;47.00;;
20044;SDS011;10183;47.808;9.476;2023-08-12T14:07:09;50.17;;;45.22;;
20044;SDS011;10183;47.808;9.476;2023-08-12T14:09:35;50.97;;;46.13;;
20044;SDS011;10183;47.808;9.476;2023-08-12T14:12:01;50.13;;;45.42;;
20044;SDS011;10183;47.808;9.476;2023-08-12T14:14:28;49.85;;;45.15;;
20044;SDS011;10183;47.808;9.476;2023-08-12T14:16:55;44.13;;;40.13;;
20044;SDS011;10183;47.808;9.476;2023-08-12T14:19:22;44.70;;;40.45;;
20044;SDS011;10183;47.808;9.476;2023-08-12T14:21:48;46.92;;;42.13;;
20044;SDS011;10183;47.808;9.476;2023-08-12T14:24:14;49.78;;;45.15;;
20044;SDS011;10183;47.808;9.476;2023-08-12T14:26:40;42.92;;;38.78;;
20044;SDS011;10183;47.808;9.476;2023-08-12T14:29:06;49.08;;;44.45;;
20044;SDS011;10183;47.808;9.476;2023-08-12T14:31:33;49.65;;;44.85;;
20044;SDS011;10183;47.808;9.476;2023-08-12T14:34:00;45.83;;;41.40;;
20044;SDS011;10183;47.808;9.476;2023-08-12T14:36:27;43.13;;;39.13;;
20044;SDS011;10183;47.808;9.476;2023-08-12T14:38:53;42.03;;;38.00;;